createdAt,value
2018-09-19T00:02:16.504Z,97525.47
2018-09-19T00:04:45.067Z,97521.14
2018-09-19T00:07:13.631Z,97516.91
2018-09-19T00:09:42.290Z,97519.39
2018-09-19T00:12:11.274Z,97515.06
2018-09-19T00:14:39.825Z,97515.40
2018-09-19T00:17:08.481Z,97522.33
2018-09-19T00:19:37.059Z,97525.60
2018-09-19T00:22:05.620Z,97530.05
2018-09-19T00:24:34.199Z,97533.42
2018-09-19T00:27:02.755Z,97535.20
2018-09-19T00:29:31.375Z,97532.27
2018-09-19T00:32:00.043Z,97534.47
2018-09-19T00:34:28.605Z,97534.69
2018-09-19T00:36:58.012Z,97540.98
2018-09-19T00:39:26.678Z,97533.61
2018-09-19T00:41:55.598Z,97535.14
2018-09-19T00:44:24.237Z,97535.14
2018-09-19T00:46:52.901Z,97540.19
2018-09-19T00:49:21.454Z,97535.05
2018-09-19T00:51:50.104Z,97543.09
2018-09-19T00:54:18.679Z,97533.98
2018-09-19T00:56:47.222Z,97533.63
2018-09-19T00:59:15.772Z,97533.75
2018-09-19T01:01:44.765Z,97535.50
2018-09-19T01:04:13.295Z,97535.14
2018-09-19T01:06:41.847Z,97531.87
2018-09-19T01:09:10.770Z,97526.02
2018-09-19T01:11:39.896Z,97532.77
2018-09-19T01:14:08.432Z,97532.17
2018-09-19T01:16:37.056Z,97531.33
2018-09-19T01:19:05.713Z,97532.52
2018-09-19T01:21:34.307Z,97535.92
2018-09-19T01:24:03.000Z,97534.05
2018-09-19T01:26:31.552Z,97537.20
2018-09-19T01:29:00.107Z,97538.23
2018-09-19T01:31:28.867Z,97539.24
2018-09-19T01:33:58.286Z,97547.41
2018-09-19T01:36:26.834Z,97547.80
2018-09-19T01:38:55.519Z,97552.47
2018-09-19T01:41:24.079Z,97548.65
2018-09-19T01:43:52.612Z,97552.39
2018-09-19T01:46:21.330Z,97545.38
2018-09-19T01:48:49.847Z,97552.48
2018-09-19T01:51:18.398Z,97546.48
2018-09-19T01:53:47.047Z,97544.15
2018-09-19T01:56:15.991Z,97548.34
2018-09-19T01:58:44.538Z,97554.19
2018-09-19T02:01:13.126Z,97555.17
2018-09-19T02:03:42.183Z,97552.56
2018-09-19T02:06:10.740Z,97558.60
2018-09-19T02:08:39.396Z,97558.14
2018-09-19T02:11:07.943Z,97561.84
2018-09-19T02:13:36.491Z,97559.36
2018-09-19T02:16:05.477Z,97558.84
2018-09-19T02:18:34.016Z,97557.56
2018-09-19T02:21:02.945Z,97563.04
2018-09-19T02:23:31.569Z,97560.47
2018-09-19T02:26:00.115Z,97561.75
2018-09-19T02:28:28.784Z,97564.33
2018-09-19T02:30:57.341Z,97557.56
2018-09-19T02:33:26.311Z,97546.58
2018-09-19T02:35:54.880Z,97555.11
2018-09-19T02:38:23.582Z,97551.62
2018-09-19T02:40:52.146Z,97560.04
2018-09-19T02:43:20.685Z,97558.75
2018-09-19T02:45:49.963Z,97562.16
2018-09-19T02:48:18.498Z,97569.32
2018-09-19T02:50:47.422Z,97573.63
2018-09-19T02:53:16.067Z,97574.30
2018-09-19T02:55:47.674Z,97580.13
2018-09-19T02:58:16.331Z,97578.44
2018-09-19T03:00:44.903Z,97581.80
2018-09-19T03:03:13.456Z,97581.80
2018-09-19T03:05:42.171Z,97582.50
2018-09-19T03:08:10.730Z,97579.34
2018-09-19T03:10:39.275Z,97586.41
2018-09-19T03:13:08.334Z,97589.70
2018-09-19T03:15:36.944Z,97591.11
2018-09-19T03:18:06.163Z,97586.38
2018-09-19T03:20:34.779Z,97588.54
2018-09-19T03:23:03.328Z,97591.55
2018-09-19T03:25:31.875Z,97592.25
2018-09-19T03:28:00.727Z,97590.97
2018-09-19T03:30:29.287Z,97591.18
2018-09-19T03:32:57.867Z,97593.63
2018-09-19T03:35:26.574Z,97594.12
2018-09-19T03:37:55.618Z,97589.06
2018-09-19T03:40:24.399Z,97585.84
2018-09-19T03:42:52.993Z,97589.52
2018-09-19T03:45:21.553Z,97596.00
2018-09-19T03:47:50.138Z,97592.89
2018-09-19T03:50:18.817Z,97592.86
2018-09-19T03:52:47.361Z,97596.25
2018-09-19T03:55:15.910Z,97594.39
2018-09-19T03:57:44.709Z,97590.81
2018-09-19T04:00:13.267Z,97594.18
2018-09-19T04:02:42.167Z,97599.12
2018-09-19T04:05:10.845Z,97596.66
2018-09-19T04:07:39.406Z,97600.89
2018-09-19T04:10:07.996Z,97602.42
2018-09-19T04:12:37.204Z,97597.53
2018-09-19T04:15:05.812Z,97599.23
2018-09-19T04:17:34.421Z,97597.74
2018-09-19T04:20:02.984Z,97600.89
2018-09-19T04:22:31.515Z,97602.17
2018-09-19T04:25:00.073Z,97602.47
2018-09-19T04:27:28.678Z,97606.69
2018-09-19T04:29:57.235Z,97603.75
2018-09-19T04:32:25.847Z,97609.58
2018-09-19T04:34:54.399Z,97613.73
2018-09-19T04:37:22.947Z,97616.57
2018-09-19T04:39:51.507Z,97613.91
2018-09-19T04:42:20.535Z,97619.94
2018-09-19T04:44:49.092Z,97614.27
2018-09-19T04:47:17.704Z,97613.33
2018-09-19T04:49:46.595Z,97618.17
2018-09-19T04:52:15.153Z,97616.23
2018-09-19T04:54:43.709Z,97615.29
2018-09-19T04:57:12.294Z,97620.14
2018-09-19T04:59:40.867Z,97612.72
2018-09-19T05:02:09.437Z,97619.34
2018-09-19T05:04:38.024Z,97625.77
2018-09-19T05:07:06.613Z,97627.50
2018-09-19T05:09:35.182Z,97625.77
2018-09-19T05:12:04.320Z,97626.51
2018-09-19T05:14:32.875Z,97623.74
2018-09-19T05:17:01.440Z,97634.15
2018-09-19T05:19:30.100Z,97634.20
2018-09-19T05:21:59.353Z,97630.41
2018-09-19T05:24:28.357Z,97638.28
2018-09-19T05:26:56.995Z,97643.80
2018-09-19T05:29:25.536Z,97646.16
2018-09-19T05:31:54.117Z,97646.50
2018-09-19T05:34:22.793Z,97644.42
2018-09-19T05:36:51.348Z,97649.07
2018-09-19T05:39:19.894Z,97648.86
2018-09-19T05:41:48.487Z,97652.27
2018-09-19T05:44:17.032Z,97651.61
2018-09-19T05:46:45.589Z,97652.11
2018-09-19T05:49:14.211Z,97654.48
2018-09-19T05:51:42.763Z,97656.61
2018-09-19T05:54:11.311Z,97661.29
2018-09-19T05:56:39.966Z,97665.14
2018-09-19T05:59:08.509Z,97656.47
2018-09-19T06:01:37.063Z,97662.88
2018-09-19T06:04:05.670Z,97658.71
2018-09-19T06:06:34.532Z,97664.44
2018-09-19T06:09:03.153Z,97666.42
2018-09-19T06:11:31.819Z,97667.78
2018-09-19T06:14:00.367Z,97669.81
2018-09-19T06:16:28.911Z,97673.13
2018-09-19T06:18:57.579Z,97673.29
2018-09-19T06:21:26.163Z,97674.20
2018-09-19T06:23:54.699Z,97676.70
2018-09-19T06:26:23.363Z,97666.02
2018-09-19T06:28:51.911Z,97673.07
2018-09-19T06:31:20.497Z,97671.23
2018-09-19T06:33:49.123Z,97671.34
2018-09-19T06:36:17.677Z,97675.70
2018-09-19T06:38:46.220Z,97676.95
2018-09-19T06:41:14.845Z,97684.23
2018-09-19T06:43:43.399Z,97688.65
2018-09-19T06:46:11.977Z,97688.72
2018-09-19T06:48:40.629Z,97688.09
2018-09-19T06:51:09.175Z,97689.16
2018-09-19T06:53:37.735Z,97686.80
2018-09-19T06:56:06.354Z,97690.16
2018-09-19T06:58:34.900Z,97692.47
2018-09-19T07:01:04.187Z,97701.17
2018-09-19T07:03:32.868Z,97705.30
2018-09-19T07:06:01.433Z,97710.59
2018-09-19T07:08:29.983Z,97714.80
2018-09-19T07:10:58.614Z,97714.48
2018-09-19T07:13:27.172Z,97714.53
2018-09-19T07:15:55.729Z,97712.53
2018-09-19T07:18:24.352Z,97718.00
2018-09-19T07:20:52.921Z,97716.51
2018-09-19T07:23:21.479Z,97720.86
2018-09-19T07:25:50.096Z,97726.08
2018-09-19T07:28:19.119Z,97728.59
2018-09-19T07:30:47.757Z,97733.91
2018-09-19T07:33:16.359Z,97738.34
2018-09-19T07:35:44.924Z,97742.37
2018-09-19T07:38:13.871Z,97735.80
2018-09-19T07:40:42.506Z,97739.28
2018-09-19T07:43:11.107Z,97739.03
2018-09-19T07:45:39.668Z,97740.97
2018-09-19T07:48:08.245Z,97749.36
2018-09-19T07:50:36.831Z,97748.14
2018-09-19T07:53:05.417Z,97755.07
2018-09-19T07:55:35.011Z,97759.36
2018-09-19T07:58:03.644Z,97755.81
2018-09-19T08:00:32.249Z,97754.45
2018-09-19T08:03:00.811Z,97745.73
2018-09-19T08:05:29.360Z,97752.11
2018-09-19T08:07:57.914Z,97747.61
2018-09-19T08:10:26.603Z,97755.96
2018-09-19T08:12:55.152Z,97753.17
2018-09-19T08:15:23.695Z,97749.61
2018-09-19T08:17:52.271Z,97744.08
2018-09-19T08:20:20.863Z,97750.28
2018-09-19T08:22:49.511Z,97743.67
2018-09-19T08:25:18.057Z,97748.41
2018-09-19T08:27:46.606Z,97753.30
2018-09-19T08:30:15.173Z,97755.73
2018-09-19T08:32:43.750Z,97754.86
2018-09-19T08:35:12.329Z,97755.87
2018-09-19T08:37:40.987Z,97756.91
2018-09-19T08:40:09.664Z,97751.91
2018-09-19T08:42:38.243Z,97757.64
2018-09-19T08:45:07.442Z,97754.92
2018-09-19T08:47:36.080Z,97754.10
2018-09-19T08:50:04.991Z,97753.02
2018-09-19T08:52:33.534Z,97754.16
2018-09-19T08:55:02.213Z,97753.29
2018-09-19T08:57:30.787Z,97750.72
2018-09-19T08:59:59.751Z,97752.10
2018-09-19T09:02:28.735Z,97752.50
2018-09-19T09:04:57.627Z,97755.18
2018-09-19T09:07:26.171Z,97750.16
2018-09-19T09:09:54.781Z,97750.16
2018-09-19T09:12:23.381Z,97751.31
2018-09-19T09:14:52.023Z,97745.25
2018-09-19T09:17:20.708Z,97754.39
2018-09-19T09:19:49.286Z,97742.91
2018-09-19T09:22:17.937Z,97743.23
2018-09-19T09:24:46.615Z,97749.39
2018-09-19T09:27:15.208Z,97750.41
2018-09-19T09:29:43.796Z,97748.22
2018-09-19T09:32:12.478Z,97742.57
2018-09-19T09:34:41.021Z,97743.16
2018-09-19T09:37:09.567Z,97748.48
2018-09-19T09:39:38.169Z,97747.47
2018-09-19T09:42:06.716Z,97746.09
2018-09-19T09:44:35.729Z,97746.00
2018-09-19T09:47:04.400Z,97751.53
2018-09-19T09:49:32.959Z,97753.94
2018-09-19T09:52:01.524Z,97748.23
2018-09-19T09:54:32.607Z,97752.48
2018-09-19T09:57:01.612Z,97751.89
2018-09-19T09:59:30.172Z,97749.88
2018-09-19T10:01:58.745Z,97742.12
2018-09-19T10:04:28.555Z,97743.33
2018-09-19T10:06:57.106Z,97741.40
2018-09-19T10:09:26.035Z,97740.30
2018-09-19T10:11:54.595Z,97746.95
2018-09-19T10:14:23.151Z,97733.39
2018-09-19T10:16:51.740Z,97737.84
2018-09-19T10:19:20.301Z,97735.92
2018-09-19T10:21:49.476Z,97741.71
2018-09-19T10:24:18.471Z,97736.74
2018-09-19T10:26:47.086Z,97736.66
2018-09-19T10:29:15.635Z,97733.36
2018-09-19T10:31:44.325Z,97728.37
2018-09-19T10:34:12.880Z,97736.09
2018-09-19T10:36:41.441Z,97734.70
2018-09-19T10:39:10.888Z,97734.45
2018-09-19T10:41:39.484Z,97730.41
2018-09-19T10:44:08.114Z,97724.64
2018-09-19T10:46:36.691Z,97720.30
2018-09-19T10:49:05.678Z,97724.95
2018-09-19T10:51:34.361Z,97728.25
2018-09-19T10:54:02.939Z,97733.35
2018-09-19T10:56:31.508Z,97728.59
2018-09-19T10:59:00.069Z,97729.74
2018-09-19T11:01:28.740Z,97723.97
2018-09-19T11:03:57.325Z,97721.55
2018-09-19T11:06:25.923Z,97722.17
2018-09-19T11:08:54.487Z,97719.81
2018-09-19T11:11:23.047Z,97716.14
2018-09-19T11:13:51.627Z,97720.25
2018-09-19T11:16:20.247Z,97716.22
2018-09-19T11:18:48.799Z,97714.31
2018-09-19T11:21:17.372Z,97714.19
2018-09-19T11:23:45.992Z,97706.89
2018-09-19T11:26:14.545Z,97705.63
2018-09-19T11:28:43.206Z,97702.80
2018-09-19T11:31:11.919Z,97705.36
2018-09-19T11:33:40.901Z,97701.55
2018-09-19T11:36:09.443Z,97699.98
2018-09-19T11:38:38.029Z,97708.69
2018-09-19T11:41:06.583Z,97702.99
2018-09-19T11:43:35.152Z,97700.89
2018-09-19T11:46:03.887Z,97693.44
2018-09-19T11:48:32.490Z,97692.76
2018-09-19T11:51:01.493Z,97694.13
2018-09-19T11:53:31.509Z,97697.05
2018-09-19T11:56:01.229Z,97689.56
2018-09-19T11:58:30.636Z,97685.83
2018-09-19T12:01:00.405Z,97679.45
2018-09-19T12:03:29.719Z,97682.52
2018-09-19T12:05:58.301Z,97678.00
2018-09-19T12:08:26.870Z,97671.23
2018-09-19T12:10:55.548Z,97666.94
2018-09-19T12:13:24.287Z,97672.47
2018-09-19T12:15:52.835Z,97678.98
2018-09-19T12:18:21.499Z,97676.43
2018-09-19T12:20:50.536Z,97678.98
2018-09-19T12:23:19.111Z,97668.69
2018-09-19T12:25:48.107Z,97663.71
2018-09-19T12:28:16.687Z,97660.13
2018-09-19T12:30:45.256Z,97660.54
2018-09-19T12:33:13.966Z,97660.24
2018-09-19T12:35:42.500Z,97659.40
2018-09-19T12:38:11.329Z,97654.97
2018-09-19T12:40:40.283Z,97658.22
2018-09-19T12:43:08.855Z,97657.27
2018-09-19T12:45:37.803Z,97651.70
2018-09-19T12:48:06.724Z,97643.66
2018-09-19T12:50:36.095Z,97652.87
2018-09-19T12:53:04.652Z,97644.20
2018-09-19T12:55:33.648Z,97643.04
2018-09-19T12:58:02.200Z,97642.38
2018-09-19T13:00:30.757Z,97646.13
2018-09-19T13:02:59.407Z,97639.36
2018-09-19T13:05:27.954Z,97637.89
2018-09-19T13:07:56.515Z,97639.07
2018-09-19T13:10:25.088Z,97640.61
2018-09-19T13:12:53.643Z,97639.30
2018-09-19T13:15:22.191Z,97631.97
2018-09-19T13:17:50.956Z,97641.10
2018-09-19T13:20:19.530Z,97633.83
2018-09-19T13:22:48.127Z,97627.52
2018-09-19T13:25:16.712Z,97637.50
2018-09-19T13:27:45.256Z,97636.45
2018-09-19T13:30:13.808Z,97633.60
2018-09-19T13:32:42.475Z,97626.62
2018-09-19T13:35:11.500Z,97631.47
2018-09-19T13:37:40.059Z,97629.66
2018-09-19T13:40:09.632Z,97633.10
2018-09-19T13:42:38.176Z,97624.36
2018-09-19T13:45:07.103Z,97625.38
2018-09-19T13:47:35.789Z,97622.00
2018-09-19T13:50:17.721Z,97620.85
2018-09-19T13:52:46.723Z,97616.33
2018-09-19T13:55:15.286Z,97616.14
2018-09-19T13:57:43.840Z,97612.59
2018-09-19T14:00:12.720Z,97608.89
2018-09-19T14:02:41.292Z,97613.85
2018-09-19T14:05:09.874Z,97610.84
2018-09-19T14:07:38.472Z,97616.58
2018-09-19T14:10:07.039Z,97609.20
2018-09-19T14:12:35.651Z,97611.28
2018-09-19T14:15:04.300Z,97618.50
2018-09-19T14:17:33.271Z,97615.25
2018-09-19T14:20:01.836Z,97612.23
2018-09-19T14:22:30.512Z,97615.53
2018-09-19T14:24:59.092Z,97612.60
2018-09-19T14:27:27.640Z,97614.64
2018-09-19T14:29:56.300Z,97609.53
2018-09-19T14:32:25.006Z,97614.63
2018-09-19T14:34:54.303Z,97609.27
2018-09-19T14:37:23.091Z,97599.52
2018-09-19T14:39:51.652Z,97601.72
2018-09-19T14:42:20.356Z,97595.80
2018-09-19T14:44:49.052Z,97596.75
2018-09-19T14:47:17.608Z,97590.67
2018-09-19T14:49:46.812Z,97593.16
2018-09-19T14:52:15.394Z,97586.14
2018-09-19T14:54:43.957Z,97587.14
2018-09-19T14:57:12.516Z,97579.90
2018-09-19T14:59:41.108Z,97578.47
2018-09-19T15:02:10.123Z,97580.95
2018-09-19T15:04:38.695Z,97586.98
2018-09-19T15:07:07.368Z,97580.94
2018-09-19T15:09:35.924Z,97572.47
2018-09-19T15:12:04.476Z,97581.33
2018-09-19T15:14:33.079Z,97577.27
2018-09-19T15:17:02.134Z,97571.30
2018-09-19T15:19:30.749Z,97568.52
2018-09-19T15:21:59.346Z,97576.87
2018-09-19T15:24:27.981Z,97578.22
2018-09-19T15:26:56.986Z,97578.44
2018-09-19T15:29:25.971Z,97579.25
2018-09-19T15:31:54.584Z,97575.39
2018-09-19T15:34:23.443Z,97583.99
2018-09-19T15:36:52.140Z,97578.97
2018-09-19T15:39:20.721Z,97573.42
2018-09-19T15:41:49.301Z,97579.86
2018-09-19T15:44:18.001Z,97582.95
2018-09-19T15:46:47.089Z,97582.52
2018-09-19T15:49:15.664Z,97580.68
2018-09-19T15:51:44.960Z,97579.42
2018-09-19T15:54:13.995Z,97584.47
2018-09-19T15:56:42.548Z,97577.16
2018-09-19T15:59:11.540Z,97578.80
2018-09-19T16:01:40.100Z,97578.13
2018-09-19T16:04:08.728Z,97583.34
2018-09-19T16:06:37.335Z,97584.66
2018-09-19T16:09:08.351Z,97583.50
2018-09-19T16:11:36.930Z,97584.17
2018-09-19T16:14:05.496Z,97586.63
2018-09-19T16:16:34.052Z,97585.63
2018-09-19T16:19:02.891Z,97588.43
2018-09-19T16:21:31.443Z,97592.98
2018-09-19T16:24:00.044Z,97590.03
2018-09-19T16:26:28.733Z,97589.06
2018-09-19T16:28:57.829Z,97592.98
2018-09-19T16:31:26.417Z,97593.80
2018-09-19T16:33:55.058Z,97590.55
2018-09-19T16:36:23.620Z,97593.31
2018-09-19T16:38:52.244Z,97592.37
2018-09-19T16:41:20.815Z,97593.35
2018-09-19T16:43:49.408Z,97599.91
2018-09-19T16:46:17.948Z,97601.06
2018-09-19T16:48:46.612Z,97599.60
2018-09-19T16:51:15.180Z,97606.64
2018-09-19T16:53:43.724Z,97599.78
2018-09-19T16:56:12.415Z,97601.75
2018-09-19T16:58:41.012Z,97600.29
2018-09-19T17:01:09.552Z,97602.22
2018-09-19T17:03:38.510Z,97601.91
2018-09-19T17:06:07.187Z,97603.84
2018-09-19T17:08:35.730Z,97603.36
2018-09-19T17:11:04.763Z,97607.29
2018-09-19T17:13:33.331Z,97607.63
2018-09-19T17:16:01.895Z,97606.80
2018-09-19T17:18:30.488Z,97606.47
2018-09-19T17:20:59.035Z,97607.60
2018-09-19T17:23:28.163Z,97606.48
2018-09-19T17:25:56.845Z,97607.92
2018-09-19T17:28:25.396Z,97609.89
2018-09-19T17:30:53.934Z,97612.34
2018-09-19T17:33:22.901Z,97619.34
2018-09-19T17:35:51.479Z,97616.52
2018-09-19T17:38:20.251Z,97627.91
2018-09-19T17:40:49.794Z,97619.45
2018-09-19T17:43:18.344Z,97622.05
2018-09-19T17:45:47.436Z,97627.09
2018-09-19T17:48:16.512Z,97622.68
2018-09-19T17:50:45.076Z,97620.88
2018-09-19T17:53:13.623Z,97626.58
2018-09-19T17:55:42.367Z,97626.22
2018-09-19T17:58:10.975Z,97627.28
2018-09-19T18:00:39.541Z,97631.89
2018-09-19T18:03:08.232Z,97632.82
2018-09-19T18:05:36.807Z,97626.69
2018-09-19T18:08:05.423Z,97633.56
2018-09-19T18:10:33.957Z,97638.07
2018-09-19T18:13:02.495Z,97634.12
2018-09-19T18:15:31.059Z,97636.84
2018-09-19T18:17:59.619Z,97639.58
2018-09-19T18:20:28.232Z,97636.39
2018-09-19T18:22:56.819Z,97644.50
2018-09-19T18:25:25.458Z,97643.88
2018-09-19T18:27:53.999Z,97642.00
2018-09-19T18:30:22.564Z,97641.66
2018-09-19T18:32:51.251Z,97645.67
2018-09-19T18:35:19.791Z,97647.50
2018-09-19T18:37:48.340Z,97646.50
2018-09-19T18:40:17.050Z,97646.36
2018-09-19T18:42:45.687Z,97651.46
2018-09-19T18:45:14.275Z,97647.78
2018-09-19T18:47:43.243Z,97657.17
2018-09-19T18:50:11.788Z,97660.23
2018-09-19T18:52:40.330Z,97654.02
2018-09-19T18:55:08.948Z,97662.42
2018-09-19T18:57:37.563Z,97655.73
2018-09-19T19:00:06.141Z,97662.63
2018-09-19T19:02:34.779Z,97665.39
2018-09-19T19:05:03.440Z,97665.99
2018-09-19T19:07:32.028Z,97666.06
2018-09-19T19:10:00.688Z,97666.52
2018-09-19T19:12:29.240Z,97665.31
2018-09-19T19:14:57.807Z,97670.57
2018-09-19T19:17:26.989Z,97666.93
2018-09-19T19:19:55.555Z,97668.80
2018-09-19T19:22:24.120Z,97668.83
2018-09-19T19:24:52.864Z,97668.37
2018-09-19T19:27:21.429Z,97671.88
2018-09-19T19:29:49.974Z,97671.63
2018-09-19T19:32:19.002Z,97675.22
2018-09-19T19:34:47.544Z,97666.38
2018-09-19T19:37:16.087Z,97672.47
2018-09-19T19:39:45.055Z,97673.34
2018-09-19T19:42:13.604Z,97670.71
2018-09-19T19:44:42.165Z,97669.22
2018-09-19T19:47:10.751Z,97665.25
2018-09-19T19:49:39.328Z,97668.00
2018-09-19T19:52:07.876Z,97673.58
2018-09-19T19:54:36.536Z,97671.61
2018-09-19T19:57:05.183Z,97671.81
2018-09-19T19:59:33.732Z,97672.83
2018-09-19T20:02:02.319Z,97669.83
2018-09-19T20:04:31.355Z,97671.44
2018-09-19T20:06:59.920Z,97677.52
2018-09-19T20:09:29.008Z,97675.94
2018-09-19T20:11:57.531Z,97674.08
2018-09-19T20:14:26.759Z,97678.38
2018-09-19T20:16:55.423Z,97682.80
2018-09-19T20:19:23.952Z,97677.24
2018-09-19T20:21:52.472Z,97678.86
2018-09-19T20:24:21.135Z,97683.02
2018-09-19T20:26:49.696Z,97676.23
2018-09-19T20:29:18.215Z,97670.05
2018-09-19T20:31:46.783Z,97677.05
2018-09-19T20:34:15.420Z,97679.69
2018-09-19T20:36:43.876Z,97672.80
2018-09-19T20:39:12.887Z,97673.41
2018-09-19T20:41:41.848Z,97675.53
2018-09-19T20:44:10.383Z,97676.52
2018-09-19T20:46:39.047Z,97676.89
2018-09-19T20:49:07.719Z,97674.61
2018-09-19T20:51:36.677Z,97676.20
2018-09-19T20:54:05.248Z,97677.44
2018-09-19T20:56:33.774Z,97684.30
2018-09-19T20:59:02.312Z,97682.08
2018-09-19T21:01:30.866Z,97681.02
2018-09-19T21:03:59.408Z,97679.50
2018-09-19T21:06:27.935Z,97688.38
2018-09-19T21:08:56.972Z,97690.20
2018-09-19T21:11:25.588Z,97690.95
2018-09-19T21:13:54.628Z,97692.05
2018-09-19T21:16:23.579Z,97691.84
2018-09-19T21:18:52.319Z,97689.28
2018-09-19T21:21:21.308Z,97691.06
2018-09-19T21:23:49.919Z,97697.52
2018-09-19T21:26:18.504Z,97699.58
2018-09-19T21:28:47.080Z,97700.49
2018-09-19T21:31:15.708Z,97700.98
2018-09-19T21:33:45.079Z,97702.05
2018-09-19T21:36:13.632Z,97712.03
2018-09-19T21:38:42.688Z,97708.64
2018-09-19T21:41:11.644Z,97710.88
2018-09-19T21:43:40.196Z,97711.48
2018-09-19T21:46:09.197Z,97705.72
2018-09-19T21:48:37.848Z,97701.63
2018-09-19T21:51:07.240Z,97707.15
2018-09-19T21:53:36.230Z,97708.18
2018-09-19T21:56:05.036Z,97701.86
2018-09-19T21:58:33.590Z,97704.69
2018-09-19T22:01:08.300Z,97708.42
2018-09-19T22:03:37.994Z,97708.44
2018-09-19T22:06:06.559Z,97713.50
2018-09-19T22:08:35.867Z,97711.39
2018-09-19T22:11:04.788Z,97711.62
2018-09-19T22:16:01.729Z,97703.39
2018-09-19T22:18:30.753Z,97698.44
2018-09-19T22:20:59.304Z,97701.98
2018-09-19T22:23:27.979Z,97698.21
2018-09-19T22:25:56.635Z,97698.31
2018-09-19T22:28:26.164Z,97697.98
2018-09-19T22:30:54.839Z,97703.37
2018-09-19T22:33:23.392Z,97697.25
2018-09-19T22:35:51.947Z,97701.35
2018-09-19T22:38:20.540Z,97695.36
2018-09-19T22:40:49.119Z,97695.72
2018-09-19T22:43:17.750Z,97688.45
2018-09-19T22:45:46.371Z,97693.38
2018-09-19T22:48:14.928Z,97688.34
2018-09-19T22:50:43.488Z,97686.69
2018-09-19T22:53:12.663Z,97688.58
2018-09-19T22:55:41.280Z,97685.96
2018-09-19T22:58:10.104Z,97689.13
2018-09-19T23:00:39.621Z,97686.68
2018-09-19T23:03:08.184Z,97685.27
2018-09-19T23:05:36.759Z,97681.98
2018-09-19T23:08:05.480Z,97678.45
2018-09-19T23:10:34.044Z,97681.25
2018-09-19T23:13:02.616Z,97684.77
2018-09-19T23:15:31.297Z,97688.14
2018-09-19T23:17:59.869Z,97691.27
2018-09-19T23:20:28.420Z,97688.68
2018-09-19T23:22:57.024Z,97694.16
2018-09-19T23:25:25.960Z,97694.05
2018-09-19T23:27:54.511Z,97693.91
2018-09-19T23:30:23.187Z,97686.06
2018-09-19T23:32:51.741Z,97682.88
2018-09-19T23:35:20.287Z,97684.16
2018-09-19T23:37:49.548Z,97683.10
2018-09-19T23:40:19.031Z,97674.30
2018-09-19T23:42:47.656Z,97671.95
2018-09-19T23:45:16.243Z,97673.92
2018-09-19T23:47:44.789Z,97675.06
2018-09-19T23:50:13.351Z,97677.06
2018-09-19T23:52:41.919Z,97678.57
2018-09-19T23:55:10.480Z,97675.84
2018-09-19T23:57:39.048Z,97682.74
